createdAt,value
2022-10-11T00:00:26.979Z,0.00
2022-10-11T00:01:27.012Z,0.00
2022-10-11T00:02:26.974Z,0.00
2022-10-11T00:03:26.961Z,0.00
2022-10-11T00:04:26.931Z,0.00
2022-10-11T00:05:26.930Z,0.00
2022-10-11T00:06:26.912Z,0.00
2022-10-11T00:07:26.926Z,0.00
2022-10-11T00:08:26.905Z,0.00
2022-10-11T00:09:26.878Z,0.00
2022-10-11T00:10:26.875Z,0.00
2022-10-11T00:11:26.866Z,0.00
2022-10-11T00:12:26.866Z,0.00
2022-10-11T00:13:26.847Z,0.00
2022-10-11T00:14:26.839Z,0.00
2022-10-11T00:15:26.817Z,0.00
2022-10-11T00:16:26.789Z,0.00
2022-10-11T00:17:26.811Z,0.00
2022-10-11T00:18:26.799Z,0.00
2022-10-11T00:19:26.757Z,0.00
2022-10-11T00:20:26.758Z,0.00
2022-10-11T00:21:26.747Z,0.00
2022-10-11T00:22:26.762Z,0.00
2022-10-11T00:23:26.730Z,0.00
2022-10-11T00:24:26.879Z,0.00
2022-10-11T00:25:26.686Z,0.00
2022-10-11T00:26:26.719Z,0.00
2022-10-11T00:27:26.690Z,0.00
2022-10-11T00:28:26.743Z,0.00
2022-10-11T00:29:26.650Z,0.00
2022-10-11T00:30:26.650Z,0.00
2022-10-11T00:31:29.944Z,0.00
2022-10-11T00:32:27.631Z,0.00
2022-10-11T00:33:26.618Z,0.00
2022-10-11T00:34:26.638Z,0.00
2022-10-11T00:35:26.583Z,0.00
2022-10-11T00:36:26.582Z,0.00
2022-10-11T00:37:26.578Z,0.00
2022-10-11T00:38:26.578Z,0.00
2022-10-11T00:39:26.530Z,0.00
2022-10-11T00:40:26.552Z,0.00
2022-10-11T00:41:26.531Z,0.00
2022-10-11T00:42:26.600Z,0.00
2022-10-11T00:43:26.598Z,0.00
2022-10-11T00:44:26.625Z,0.00
2022-10-11T00:45:26.587Z,0.00
2022-10-11T00:46:26.691Z,0.00
2022-10-11T00:47:26.499Z,0.00
2022-10-11T00:48:26.519Z,0.00
2022-10-11T00:49:26.503Z,0.00
2022-10-11T00:50:26.439Z,0.00
2022-10-11T00:51:26.406Z,0.00
2022-10-11T00:52:26.419Z,0.00
2022-10-11T00:53:26.388Z,0.00
2022-10-11T00:54:26.370Z,0.00
2022-10-11T00:55:26.511Z,0.00
2022-10-11T00:56:26.351Z,0.00
2022-10-11T00:57:26.356Z,0.00
2022-10-11T00:58:26.323Z,0.00
2022-10-11T00:59:26.319Z,0.00
2022-10-11T01:00:26.340Z,0.00
2022-10-11T01:01:26.496Z,0.00
2022-10-11T01:02:26.310Z,0.00
2022-10-11T01:03:26.271Z,0.00
2022-10-11T01:04:26.270Z,0.00
2022-10-11T01:05:29.517Z,0.00
2022-10-11T01:06:26.259Z,0.00
2022-10-11T01:07:26.233Z,0.00
2022-10-11T01:08:26.247Z,0.00
2022-10-11T01:09:26.200Z,0.00
2022-10-11T01:10:26.204Z,0.00
2022-10-11T01:11:26.187Z,0.00
2022-10-11T01:12:26.192Z,0.00
2022-10-11T01:13:26.171Z,0.00
2022-10-11T01:14:26.151Z,0.00
2022-10-11T01:15:26.139Z,0.00
2022-10-11T01:16:26.131Z,0.00
2022-10-11T01:17:26.283Z,0.00
2022-10-11T01:18:26.127Z,0.00
2022-10-11T01:19:26.143Z,0.00
2022-10-11T01:20:26.120Z,0.00
2022-10-11T01:21:26.087Z,0.00
2022-10-11T01:22:26.083Z,0.00
2022-10-11T01:23:26.051Z,0.00
2022-10-11T01:24:26.039Z,0.00
2022-10-11T01:25:26.011Z,0.00
2022-10-11T01:26:26.651Z,0.00
2022-10-11T01:27:26.012Z,0.00
2022-10-11T01:28:26.057Z,0.00
2022-10-11T01:29:25.997Z,0.00
2022-10-11T01:30:25.973Z,0.00
2022-10-11T01:31:25.969Z,0.00
2022-10-11T01:32:25.960Z,0.00
2022-10-11T01:33:25.958Z,0.00
2022-10-11T01:34:25.932Z,0.00
2022-10-11T01:35:25.959Z,0.00
2022-10-11T01:36:25.913Z,0.00
2022-10-11T01:37:25.880Z,0.00
2022-10-11T01:38:25.899Z,0.00
2022-10-11T01:39:25.884Z,0.00
2022-10-11T01:40:25.864Z,0.00
2022-10-11T01:41:26.368Z,0.00
2022-10-11T01:42:25.840Z,0.00
2022-10-11T01:43:25.883Z,0.00
2022-10-11T01:44:26.017Z,0.00
2022-10-11T01:45:25.939Z,0.00
2022-10-11T01:46:25.792Z,0.00
2022-10-11T01:47:25.809Z,0.00
2022-10-11T01:48:25.775Z,0.00
2022-10-11T01:49:25.772Z,0.00
2022-10-11T01:50:25.744Z,0.00
2022-10-11T01:51:25.724Z,0.00
2022-10-11T01:52:25.723Z,0.00
2022-10-11T01:53:25.700Z,0.00
2022-10-11T01:54:25.725Z,0.00
2022-10-11T01:55:25.682Z,0.00
2022-10-11T01:56:25.671Z,0.00
2022-10-11T01:57:25.659Z,0.00
2022-10-11T01:58:25.676Z,0.00
2022-10-11T01:59:25.676Z,0.00
2022-10-11T02:00:25.644Z,0.00
2022-10-11T02:01:25.689Z,0.00
2022-10-11T02:02:25.645Z,0.00
2022-10-11T02:03:25.584Z,0.00
2022-10-11T02:04:25.607Z,0.00
2022-10-11T02:05:25.613Z,0.00
2022-10-11T02:06:25.564Z,0.00
2022-10-11T02:07:25.540Z,0.00
2022-10-11T02:08:25.545Z,0.00
2022-10-11T02:09:25.548Z,0.00
2022-10-11T02:10:25.560Z,0.00
2022-10-11T02:11:25.493Z,0.00
2022-10-11T02:12:25.539Z,0.00
2022-10-11T02:13:25.546Z,0.00
2022-10-11T02:14:25.521Z,0.00
2022-10-11T02:15:25.545Z,0.00
2022-10-11T02:16:25.512Z,0.00
2022-10-11T02:17:25.557Z,0.00
2022-10-11T02:18:25.594Z,0.00
2022-10-11T02:19:25.499Z,0.00
2022-10-11T02:20:25.660Z,0.00
2022-10-11T02:21:25.604Z,0.00
2022-10-11T02:22:25.572Z,0.00
2022-10-11T02:23:25.573Z,0.00
2022-10-11T02:24:25.700Z,0.00
2022-10-11T02:25:25.472Z,0.00
2022-10-11T02:26:25.573Z,0.00
2022-10-11T02:27:25.313Z,0.00
2022-10-11T02:28:25.351Z,0.00
2022-10-11T02:29:25.293Z,0.00
2022-10-11T02:30:25.284Z,0.00
2022-10-11T02:31:25.299Z,0.00
2022-10-11T02:32:25.285Z,0.00
2022-10-11T02:33:25.253Z,0.00
2022-10-11T02:34:25.245Z,0.00
2022-10-11T02:35:25.220Z,0.00
2022-10-11T02:36:25.253Z,0.00
2022-10-11T02:37:25.196Z,0.00
2022-10-11T02:38:25.205Z,0.00
2022-10-11T02:39:25.172Z,0.00
2022-10-11T02:40:25.193Z,0.00
2022-10-11T02:41:25.167Z,0.00
2022-10-11T02:42:25.153Z,0.00
2022-10-11T02:43:25.136Z,0.00
2022-10-11T02:44:25.245Z,0.00
2022-10-11T02:45:25.121Z,0.00
2022-10-11T02:46:25.121Z,0.00
2022-10-11T02:47:25.113Z,0.00
2022-10-11T02:48:25.084Z,0.00
2022-10-11T02:49:25.065Z,0.00
2022-10-11T02:50:25.085Z,0.00
2022-10-11T02:51:25.049Z,0.00
2022-10-11T02:52:25.045Z,0.00
2022-10-11T02:53:25.029Z,0.00
2022-10-11T02:54:25.286Z,0.00
2022-10-11T02:55:25.005Z,0.00
2022-10-11T02:56:25.013Z,0.00
2022-10-11T02:57:24.985Z,0.00
2022-10-11T02:58:24.972Z,0.00
2022-10-11T02:59:24.957Z,0.00
2022-10-11T03:00:24.985Z,0.00
2022-10-11T03:01:24.965Z,0.00
2022-10-11T03:02:24.945Z,0.00
2022-10-11T03:03:24.955Z,0.00
2022-10-11T03:04:24.901Z,0.00
2022-10-11T03:05:24.921Z,0.00
2022-10-11T03:06:24.897Z,0.00
2022-10-11T03:07:24.865Z,0.00
2022-10-11T03:08:24.865Z,0.00
2022-10-11T03:09:24.870Z,0.00
2022-10-11T03:10:24.925Z,0.00
2022-10-11T03:11:24.813Z,0.00
2022-10-11T03:12:24.825Z,0.00
2022-10-11T03:13:24.799Z,0.00
2022-10-11T03:14:25.495Z,0.00
2022-10-11T03:15:24.789Z,0.00
2022-10-11T03:16:24.765Z,0.00
2022-10-11T03:17:36.077Z,0.00
2022-10-11T03:18:25.742Z,0.00
2022-10-11T03:19:24.741Z,0.00
2022-10-11T03:20:24.746Z,0.00
2022-10-11T03:21:24.706Z,0.00
2022-10-11T03:22:24.725Z,0.00
2022-10-11T03:23:24.685Z,0.00
2022-10-11T03:24:24.694Z,0.00
2022-10-11T03:25:24.653Z,0.00
2022-10-11T03:26:24.673Z,0.00
2022-10-11T03:27:24.641Z,0.00
2022-10-11T03:28:24.743Z,0.00
2022-10-11T03:29:24.625Z,0.00
2022-10-11T03:30:24.617Z,0.00
2022-10-11T03:31:24.623Z,0.00
2022-10-11T03:32:24.603Z,0.00
2022-10-11T03:33:24.745Z,0.00
2022-10-11T03:34:24.593Z,0.00
2022-10-11T03:35:24.554Z,0.00
2022-10-11T03:36:24.542Z,0.00
2022-10-11T03:37:24.526Z,0.00
2022-10-11T03:38:24.513Z,0.00
2022-10-11T03:39:24.502Z,0.00
2022-10-11T03:40:24.521Z,0.00
2022-10-11T03:41:24.486Z,0.00
2022-10-11T03:42:24.486Z,0.00
2022-10-11T03:43:24.466Z,0.00
2022-10-11T03:44:24.466Z,0.00
2022-10-11T03:45:24.453Z,0.00
2022-10-11T03:46:24.435Z,0.00
2022-10-11T03:47:24.426Z,0.00
2022-10-11T03:48:24.402Z,0.00
2022-10-11T03:49:24.394Z,0.00
2022-10-11T03:50:24.482Z,0.00
2022-10-11T03:51:24.367Z,0.00
2022-10-11T03:52:24.380Z,0.00
2022-10-11T03:53:24.458Z,0.00
2022-10-11T03:54:24.348Z,0.00
2022-10-11T03:55:24.322Z,0.00
2022-10-11T03:56:24.341Z,0.00
2022-10-11T03:57:24.306Z,0.00
2022-10-11T03:58:24.313Z,0.00
2022-10-11T03:59:24.275Z,0.00
2022-10-11T04:00:24.274Z,0.00
2022-10-11T04:01:24.345Z,0.00
2022-10-11T04:02:24.258Z,0.00
2022-10-11T04:03:24.227Z,0.00
2022-10-11T04:04:24.226Z,0.00
2022-10-11T04:05:24.222Z,0.00
2022-10-11T04:06:24.235Z,0.00
2022-10-11T04:07:24.191Z,0.00
2022-10-11T04:08:24.199Z,0.00
2022-10-11T04:09:24.167Z,0.00
2022-10-11T04:10:24.215Z,0.00
2022-10-11T04:11:24.926Z,0.00
2022-10-11T04:12:24.190Z,0.00
2022-10-11T04:13:24.214Z,0.00
2022-10-11T04:14:24.146Z,0.00
2022-10-11T04:15:24.240Z,0.00
2022-10-11T04:16:24.087Z,0.00
2022-10-11T04:17:24.074Z,0.00
2022-10-11T04:18:24.220Z,0.00
2022-10-11T04:19:24.119Z,0.00
2022-10-11T04:20:24.116Z,0.00
2022-10-11T04:21:24.063Z,0.00
2022-10-11T04:22:24.095Z,0.00
2022-10-11T04:23:24.015Z,0.00
2022-10-11T04:24:24.014Z,0.00
2022-10-11T04:25:24.715Z,0.00
2022-10-11T04:26:24.039Z,0.00
2022-10-11T04:27:24.003Z,0.00
2022-10-11T04:28:24.026Z,0.00
2022-10-11T04:29:25.823Z,0.00
2022-10-11T04:30:23.935Z,0.00
2022-10-11T04:31:23.914Z,0.00
2022-10-11T04:32:23.927Z,0.00
2022-10-11T04:33:24.124Z,0.00
2022-10-11T04:34:23.940Z,0.00
2022-10-11T04:35:24.444Z,0.00
2022-10-11T04:36:23.879Z,0.00
2022-10-11T04:37:23.895Z,0.00
2022-10-11T04:38:23.848Z,0.00
2022-10-11T04:39:23.846Z,0.00
2022-10-11T04:40:23.855Z,0.00
2022-10-11T04:41:23.863Z,0.00
2022-10-11T04:42:23.847Z,0.00
2022-10-11T04:43:23.825Z,0.00
2022-10-11T04:44:23.935Z,0.00
2022-10-11T04:45:23.766Z,0.00
2022-10-11T04:46:23.747Z,0.00
2022-10-11T04:47:23.767Z,0.00
2022-10-11T04:48:23.736Z,0.00
2022-10-11T04:49:23.735Z,0.00
2022-10-11T04:50:23.707Z,0.00
2022-10-11T04:51:23.703Z,0.00
2022-10-11T04:52:25.883Z,0.00
2022-10-11T04:53:23.709Z,0.00
2022-10-11T04:54:23.657Z,0.00
2022-10-11T04:55:23.689Z,0.00
2022-10-11T04:56:23.649Z,0.00
2022-10-11T04:57:23.633Z,0.00
2022-10-11T04:58:23.617Z,0.00
2022-10-11T04:59:23.611Z,0.00
2022-10-11T05:00:23.613Z,0.00
2022-10-11T05:01:23.586Z,0.00
2022-10-11T05:02:23.684Z,0.00
2022-10-11T05:03:23.577Z,0.00
2022-10-11T05:04:23.537Z,0.00
2022-10-11T05:05:23.549Z,0.00
2022-10-11T05:06:23.711Z,0.00
2022-10-11T05:07:23.725Z,0.00
2022-10-11T05:08:23.518Z,0.00
2022-10-11T05:09:23.493Z,0.00
2022-10-11T05:10:23.496Z,0.00
2022-10-11T05:11:23.478Z,0.00
2022-10-11T05:12:23.454Z,0.00
2022-10-11T05:13:23.486Z,0.00
2022-10-11T05:14:23.426Z,0.00
2022-10-11T05:15:23.458Z,0.00
2022-10-11T05:16:23.411Z,0.00
2022-10-11T05:17:23.415Z,0.00
2022-10-11T05:18:23.418Z,0.00
2022-10-11T05:19:23.377Z,0.00
2022-10-11T05:20:23.386Z,0.00
2022-10-11T05:21:23.388Z,4.00
2022-10-11T05:22:23.405Z,4.00
2022-10-11T05:23:23.512Z,0.00
2022-10-11T05:24:23.533Z,4.00
2022-10-11T05:25:23.518Z,4.00
2022-10-11T05:26:23.586Z,4.00
2022-10-11T05:27:23.550Z,8.00
2022-10-11T05:28:23.387Z,8.00
2022-10-11T05:29:23.286Z,4.00
2022-10-11T05:30:23.266Z,8.00
2022-10-11T05:31:23.250Z,8.00
2022-10-11T05:32:27.629Z,12.00
2022-10-11T05:33:23.217Z,12.00
2022-10-11T05:34:23.199Z,12.00
2022-10-11T05:35:23.218Z,16.00
2022-10-11T05:36:23.186Z,20.00
2022-10-11T05:37:23.191Z,20.00
2022-10-11T05:38:23.178Z,24.00
2022-10-11T05:39:23.163Z,28.00
2022-10-11T05:40:23.131Z,32.00
2022-10-11T05:41:23.138Z,36.00
2022-10-11T05:42:23.145Z,40.00
2022-10-11T05:43:23.126Z,48.00
2022-10-11T05:44:23.118Z,48.00
2022-10-11T05:45:23.102Z,56.00
2022-10-11T05:46:23.112Z,60.00
2022-10-11T05:47:23.095Z,68.00
2022-10-11T05:48:23.095Z,72.00
2022-10-11T05:49:23.064Z,80.00
2022-10-11T05:50:24.431Z,88.00
2022-10-11T05:51:23.126Z,92.00
2022-10-11T05:52:23.107Z,100.00
2022-10-11T05:53:23.155Z,108.00
2022-10-11T05:54:23.140Z,120.00
2022-10-11T05:55:23.122Z,128.00
2022-10-11T05:56:23.166Z,136.00
2022-10-11T05:57:23.218Z,144.00
2022-10-11T05:58:23.178Z,152.00
2022-10-11T05:59:23.259Z,164.00
2022-10-11T06:00:22.911Z,172.00
2022-10-11T06:01:23.091Z,180.00
2022-10-11T06:02:23.051Z,192.00
2022-10-11T06:03:22.918Z,200.00
2022-10-11T06:04:22.937Z,208.00
2022-10-11T06:05:22.887Z,220.00
2022-10-11T06:06:22.851Z,232.00
2022-10-11T06:07:22.838Z,240.00
2022-10-11T06:08:22.847Z,252.00
2022-10-11T06:09:22.820Z,264.00
2022-10-11T06:10:22.831Z,272.00
2022-10-11T06:11:22.807Z,284.00
2022-10-11T06:12:22.787Z,296.00
2022-10-11T06:13:22.779Z,304.00
2022-10-11T06:14:22.747Z,312.00
2022-10-11T06:15:22.746Z,320.00
2022-10-11T06:16:22.748Z,336.00
2022-10-11T06:17:22.727Z,348.00
2022-10-11T06:18:22.716Z,356.00
2022-10-11T06:19:22.715Z,364.00
2022-10-11T06:20:22.710Z,368.00
2022-10-11T06:21:22.705Z,380.00
2022-10-11T06:22:23.135Z,384.00
2022-10-11T06:23:22.667Z,396.00
2022-10-11T06:24:22.648Z,400.00
2022-10-11T06:25:22.649Z,404.00
2022-10-11T06:26:22.623Z,412.00
2022-10-11T06:27:22.631Z,416.00
2022-10-11T06:28:22.648Z,428.00
2022-10-11T06:29:22.595Z,440.00
2022-10-11T06:30:22.587Z,436.00
2022-10-11T06:31:22.567Z,444.00
2022-10-11T06:32:22.568Z,448.00
2022-10-11T06:33:22.759Z,456.00
2022-10-11T06:34:22.543Z,468.00
2022-10-11T06:35:22.527Z,480.00
2022-10-11T06:36:22.507Z,488.00
2022-10-11T06:37:22.534Z,504.00
2022-10-11T06:38:22.492Z,516.00
2022-10-11T06:39:22.493Z,520.00
2022-10-11T06:40:22.460Z,524.00
2022-10-11T06:41:22.483Z,528.00
2022-10-11T06:42:22.471Z,536.00
2022-10-11T06:43:22.434Z,540.00
2022-10-11T06:44:22.432Z,552.00
2022-10-11T06:45:22.416Z,560.00
2022-10-11T06:46:22.398Z,568.00
2022-10-11T06:47:22.402Z,580.00
2022-10-11T06:48:22.407Z,584.00
2022-10-11T06:49:23.626Z,592.00
2022-10-11T06:50:40.598Z,600.00
2022-10-11T06:51:23.377Z,608.00
2022-10-11T06:52:22.357Z,616.00
2022-10-11T06:53:22.367Z,620.00
2022-10-11T06:54:22.329Z,632.00
2022-10-11T06:55:22.310Z,632.00
2022-10-11T06:56:22.295Z,632.00
2022-10-11T06:57:22.276Z,636.00
2022-10-11T06:58:22.267Z,640.00
2022-10-11T06:59:22.255Z,644.00
2022-10-11T07:00:22.260Z,648.00
2022-10-11T07:01:22.294Z,652.00
2022-10-11T07:02:22.385Z,652.00
2022-10-11T07:03:22.208Z,656.00
2022-10-11T07:04:22.441Z,664.00
2022-10-11T07:05:22.197Z,668.00
2022-10-11T07:06:22.168Z,672.00
2022-10-11T07:07:22.156Z,676.00
2022-10-11T07:08:22.149Z,696.00
2022-10-11T07:09:22.156Z,720.00
2022-10-11T07:10:22.136Z,732.00
2022-10-11T07:11:22.156Z,736.00
2022-10-11T07:12:22.187Z,744.00
2022-10-11T07:13:22.216Z,752.00
2022-10-11T07:14:22.257Z,752.00
2022-10-11T07:15:22.272Z,760.00
2022-10-11T07:16:22.084Z,764.00
2022-10-11T07:17:22.095Z,764.00
2022-10-11T07:18:22.049Z,760.00
2022-10-11T07:19:22.024Z,764.00
2022-10-11T07:20:22.034Z,760.00
2022-10-11T07:21:22.041Z,760.00
2022-10-11T07:22:22.519Z,756.00
2022-10-11T07:23:22.007Z,748.00
2022-10-11T07:24:21.997Z,740.00
2022-10-11T07:25:21.976Z,736.00
2022-10-11T07:26:21.968Z,712.00
2022-10-11T07:27:21.950Z,704.00
2022-10-11T07:28:21.970Z,720.00
2022-10-11T07:29:21.920Z,724.00
2022-10-11T07:30:21.901Z,724.00
2022-10-11T07:31:21.889Z,728.00
2022-10-11T07:32:21.900Z,728.00
2022-10-11T07:33:21.876Z,720.00
2022-10-11T07:34:21.856Z,728.00
2022-10-11T07:35:21.848Z,720.00
2022-10-11T07:36:21.828Z,716.00
2022-10-11T07:37:21.861Z,716.00
2022-10-11T07:38:21.805Z,712.00
2022-10-11T07:39:21.808Z,720.00
2022-10-11T07:40:21.781Z,728.00
2022-10-11T07:41:21.780Z,736.00
2022-10-11T07:42:21.761Z,732.00
2022-10-11T07:43:21.797Z,744.00
2022-10-11T07:44:21.749Z,748.00
2022-10-11T07:45:21.758Z,748.00
2022-10-11T07:46:21.718Z,756.00
2022-10-11T07:47:21.717Z,756.00
2022-10-11T07:48:21.720Z,736.00
2022-10-11T07:49:21.690Z,712.00
2022-10-11T07:50:22.133Z,708.00
2022-10-11T07:51:21.671Z,744.00
2022-10-11T07:52:21.650Z,744.00
2022-10-11T07:53:21.662Z,744.00
2022-10-11T07:54:21.638Z,744.00
2022-10-11T07:55:21.624Z,772.00
2022-10-11T07:56:21.601Z,800.00
2022-10-11T07:57:21.623Z,824.00
2022-10-11T07:58:21.617Z,872.00
2022-10-11T07:59:21.597Z,876.00
2022-10-11T08:00:21.565Z,888.00
2022-10-11T08:01:21.685Z,900.00
2022-10-11T08:02:21.549Z,904.00
2022-10-11T08:03:21.532Z,888.00
2022-10-11T08:04:21.657Z,900.00
2022-10-11T08:05:21.517Z,888.00
2022-10-11T08:06:21.582Z,828.00
2022-10-11T08:07:21.516Z,848.00
2022-10-11T08:08:21.538Z,884.00
2022-10-11T08:09:21.508Z,940.00
2022-10-11T08:10:21.561Z,948.00
2022-10-11T08:11:21.882Z,956.00
2022-10-11T08:12:21.517Z,972.00
2022-10-11T08:13:21.709Z,976.00
2022-10-11T08:14:21.521Z,992.00
2022-10-11T08:15:21.550Z,996.00
2022-10-11T08:16:21.589Z,972.00
2022-10-11T08:17:21.641Z,968.00
2022-10-11T08:18:21.597Z,976.00
2022-10-11T08:19:21.656Z,988.00
2022-10-11T08:20:21.672Z,1008.00
2022-10-11T08:21:21.599Z,996.00
2022-10-11T08:22:21.569Z,1052.00
2022-10-11T08:23:21.313Z,1080.00
2022-10-11T08:24:21.284Z,1100.00
2022-10-11T08:25:21.278Z,1108.00
2022-10-11T08:26:21.271Z,1112.00
2022-10-11T08:27:21.285Z,1124.00
2022-10-11T08:28:21.271Z,1144.00
2022-10-11T08:29:22.038Z,1164.00
2022-10-11T08:30:21.230Z,1172.00
2022-10-11T08:31:21.225Z,1168.00
2022-10-11T08:32:21.201Z,1180.00
2022-10-11T08:33:21.383Z,1192.00
2022-10-11T08:34:21.429Z,1212.00
2022-10-11T08:35:21.171Z,1228.00
2022-10-11T08:36:21.157Z,1248.00
2022-10-11T08:37:21.251Z,1280.00
2022-10-11T08:38:21.134Z,1292.00
2022-10-11T08:39:21.157Z,1308.00
2022-10-11T08:40:21.104Z,1308.00
2022-10-11T08:41:21.124Z,1316.00
2022-10-11T08:42:21.108Z,1320.00
2022-10-11T08:43:21.101Z,1316.00
2022-10-11T08:44:21.076Z,1340.00
2022-10-11T08:45:21.109Z,1364.00
2022-10-11T08:46:21.038Z,1420.00
2022-10-11T08:47:21.038Z,1472.00
2022-10-11T08:48:21.026Z,1496.00
2022-10-11T08:49:21.031Z,1516.00
2022-10-11T08:50:21.002Z,1548.00
2022-10-11T08:51:21.001Z,1548.00
2022-10-11T08:52:21.006Z,1572.00
2022-10-11T08:53:20.961Z,1576.00
2022-10-11T08:54:21.061Z,1568.00
2022-10-11T08:55:20.929Z,1576.00
2022-10-11T08:56:20.938Z,1628.00
2022-10-11T08:57:20.914Z,1644.00
2022-10-11T08:58:20.909Z,1640.00
2022-10-11T08:59:20.902Z,1684.00
2022-10-11T09:00:20.997Z,1708.00
2022-10-11T09:01:20.896Z,1744.00
2022-10-11T09:02:20.878Z,1748.00
2022-10-11T09:03:20.863Z,1740.00
2022-10-11T09:04:20.870Z,1752.00
2022-10-11T09:05:20.862Z,1760.00
2022-10-11T09:06:20.822Z,1768.00
2022-10-11T09:07:20.812Z,1764.00
2022-10-11T09:08:20.802Z,1732.00
2022-10-11T09:09:20.773Z,1752.00
2022-10-11T09:10:20.973Z,1684.00
2022-10-11T09:11:20.778Z,1676.00
2022-10-11T09:12:20.754Z,1672.00
2022-10-11T09:13:20.789Z,1700.00
2022-10-11T09:14:20.729Z,1764.00
2022-10-11T09:15:20.703Z,1832.00
2022-10-11T09:16:20.774Z,1876.00
2022-10-11T09:17:20.723Z,1916.00
2022-10-11T09:18:20.753Z,1932.00
2022-10-11T09:19:20.674Z,1820.00
2022-10-11T09:20:20.732Z,1940.00
2022-10-11T09:21:20.663Z,2016.00
2022-10-11T09:22:20.742Z,2012.00
2022-10-11T09:23:20.616Z,1964.00
2022-10-11T09:24:20.615Z,1980.00
2022-10-11T09:25:20.604Z,2048.00
2022-10-11T09:26:20.618Z,2068.00
2022-10-11T09:27:29.107Z,2000.00
2022-10-11T09:28:21.641Z,1968.00
2022-10-11T09:29:20.554Z,1960.00
2022-10-11T09:30:20.558Z,1944.00
2022-10-11T09:31:20.702Z,1912.00
2022-10-11T09:32:20.539Z,1912.00
2022-10-11T09:33:20.564Z,1980.00
2022-10-11T09:34:20.515Z,2060.00
2022-10-11T09:35:20.482Z,2092.00
2022-10-11T09:36:20.495Z,2116.00
2022-10-11T09:37:20.462Z,2128.00
2022-10-11T09:38:20.482Z,2144.00
2022-10-11T09:39:20.466Z,2016.00
2022-10-11T09:40:20.471Z,2072.00
2022-10-11T09:41:20.422Z,2184.00
2022-10-11T09:42:20.415Z,2168.00
2022-10-11T09:43:20.424Z,1948.00
2022-10-11T09:44:20.407Z,1956.00
2022-10-11T09:45:20.375Z,2008.00
2022-10-11T09:46:20.373Z,1996.00
2022-10-11T09:47:20.370Z,2004.00
2022-10-11T09:48:20.356Z,1984.00
2022-10-11T09:49:20.346Z,1956.00
2022-10-11T09:50:20.348Z,1980.00
2022-10-11T09:51:20.316Z,1944.00
2022-10-11T09:52:20.306Z,1984.00
2022-10-11T09:53:20.353Z,1804.00
2022-10-11T09:54:20.283Z,1964.00
2022-10-11T09:55:20.267Z,1912.00
2022-10-11T09:56:20.326Z,1980.00
2022-10-11T09:57:20.254Z,1988.00
2022-10-11T09:58:20.267Z,1964.00
2022-10-11T09:59:20.254Z,1968.00
2022-10-11T10:00:20.208Z,1920.00
2022-10-11T10:01:20.229Z,1880.00
2022-10-11T10:02:20.248Z,1892.00
2022-10-11T10:03:20.159Z,1908.00
2022-10-11T10:04:20.167Z,1840.00
2022-10-11T10:05:20.188Z,1936.00
2022-10-11T10:06:20.455Z,1932.00
2022-10-11T10:07:20.127Z,2000.00
2022-10-11T10:08:20.147Z,1820.00
2022-10-11T10:09:20.128Z,1812.00
2022-10-11T10:10:20.107Z,1800.00
2022-10-11T10:11:20.118Z,1744.00
2022-10-11T10:12:20.098Z,1708.00
2022-10-11T10:13:20.059Z,1780.00
2022-10-11T10:14:20.095Z,1848.00
2022-10-11T10:15:20.111Z,1740.00
2022-10-11T10:16:20.027Z,1776.00
2022-10-11T10:17:20.023Z,1776.00
2022-10-11T10:18:19.998Z,1852.00
2022-10-11T10:19:20.016Z,1860.00
2022-10-11T10:20:20.039Z,1788.00
2022-10-11T10:21:19.979Z,1800.00
2022-10-11T10:22:20.299Z,1900.00
2022-10-11T10:23:19.940Z,1760.00
2022-10-11T10:24:19.962Z,1776.00
2022-10-11T10:25:20.055Z,1740.00
2022-10-11T10:26:19.924Z,1728.00
2022-10-11T10:27:19.909Z,1688.00
2022-10-11T10:28:19.972Z,1808.00
2022-10-11T10:29:19.885Z,1676.00
2022-10-11T10:30:19.960Z,1912.00
2022-10-11T10:31:19.870Z,1912.00
2022-10-11T10:32:19.853Z,1916.00
2022-10-11T10:33:19.830Z,1908.00
2022-10-11T10:34:19.831Z,1856.00
2022-10-11T10:35:19.849Z,1904.00
2022-10-11T10:36:19.841Z,1832.00
2022-10-11T10:37:19.801Z,1760.00
2022-10-11T10:38:24.129Z,1692.00
2022-10-11T10:39:21.138Z,1644.00
2022-10-11T10:40:19.843Z,1620.00
2022-10-11T10:41:19.769Z,1596.00
2022-10-11T10:42:19.769Z,1540.00
2022-10-11T10:43:19.750Z,1524.00
2022-10-11T10:44:19.717Z,1516.00
2022-10-11T10:45:21.763Z,1516.00
2022-10-11T10:46:19.721Z,1680.00
2022-10-11T10:47:19.671Z,1708.00
2022-10-11T10:48:19.698Z,1692.00
2022-10-11T10:49:48.508Z,1620.00
2022-10-11T10:50:20.655Z,1540.00
2022-10-11T10:51:19.634Z,1512.00
2022-10-11T10:52:19.650Z,1492.00
2022-10-11T10:53:19.601Z,1456.00
2022-10-11T10:54:19.609Z,1436.00
2022-10-11T10:55:19.619Z,1280.00
2022-10-11T10:56:19.621Z,1556.00
2022-10-11T10:57:19.561Z,1492.00
2022-10-11T10:58:19.564Z,1504.00
2022-10-11T10:59:19.545Z,1544.00
2022-10-11T11:00:19.813Z,1440.00
2022-10-11T11:01:19.607Z,1428.00
2022-10-11T11:02:39.703Z,1164.00
2022-10-11T11:03:20.520Z,1304.00
2022-10-11T11:04:19.522Z,1064.00
2022-10-11T11:05:20.422Z,1024.00
2022-10-11T11:06:19.474Z,1024.00
2022-10-11T11:07:19.483Z,1020.00
2022-10-11T11:08:19.478Z,1532.00
2022-10-11T11:09:19.458Z,1532.00
2022-10-11T11:10:19.442Z,1008.00
2022-10-11T11:11:19.423Z,884.00
2022-10-11T11:12:19.435Z,852.00
2022-10-11T11:13:19.390Z,856.00
2022-10-11T11:14:19.386Z,952.00
2022-10-11T11:15:20.087Z,984.00
2022-10-11T11:16:19.379Z,1036.00
2022-10-11T11:17:19.363Z,1472.00
2022-10-11T11:18:19.354Z,1292.00
2022-10-11T11:19:19.334Z,1616.00
2022-10-11T11:20:19.807Z,1480.00
2022-10-11T11:21:19.294Z,896.00
2022-10-11T11:22:19.301Z,840.00
2022-10-11T11:23:19.294Z,820.00
2022-10-11T11:24:19.266Z,816.00
2022-10-11T11:25:19.264Z,832.00
2022-10-11T11:26:19.289Z,1368.00
2022-10-11T11:27:19.254Z,1320.00
2022-10-11T11:28:19.289Z,1260.00
2022-10-11T11:29:19.229Z,1336.00
2022-10-11T11:30:19.238Z,1500.00
2022-10-11T11:31:19.206Z,1568.00
2022-10-11T11:32:19.198Z,1544.00
2022-10-11T11:33:19.207Z,1452.00
2022-10-11T11:34:19.173Z,1444.00
2022-10-11T11:35:19.163Z,1492.00
2022-10-11T11:36:19.166Z,1476.00
2022-10-11T11:37:19.127Z,1432.00
2022-10-11T11:38:19.127Z,1368.00
2022-10-11T11:39:19.086Z,1304.00
2022-10-11T11:40:19.119Z,1308.00
2022-10-11T11:41:19.091Z,1376.00
2022-10-11T11:42:19.114Z,1380.00
2022-10-11T11:43:19.118Z,1256.00
2022-10-11T11:44:21.727Z,1184.00
2022-10-11T11:45:19.376Z,1344.00
2022-10-11T11:46:19.111Z,1448.00
2022-10-11T11:47:19.126Z,1596.00
2022-10-11T11:48:19.179Z,1672.00
2022-10-11T11:49:19.095Z,1612.00
2022-10-11T11:50:19.278Z,1768.00
2022-10-11T11:51:19.222Z,1880.00
2022-10-11T11:52:19.171Z,1840.00
2022-10-11T11:53:19.216Z,1680.00
2022-10-11T11:54:19.219Z,1608.00
2022-10-11T11:55:19.320Z,1792.00
2022-10-11T11:56:19.127Z,1844.00
2022-10-11T11:57:19.148Z,1940.00
2022-10-11T11:58:18.912Z,1880.00
2022-10-11T11:59:18.918Z,1092.00
2022-10-11T12:00:19.220Z,1064.00
2022-10-11T12:01:18.843Z,1380.00
2022-10-11T12:02:18.891Z,1632.00
2022-10-11T12:03:18.831Z,2048.00
2022-10-11T12:04:18.847Z,1616.00
2022-10-11T12:05:19.255Z,1024.00
2022-10-11T12:06:18.810Z,1824.00
2022-10-11T12:07:18.784Z,1316.00
2022-10-11T12:08:18.771Z,1320.00
2022-10-11T12:09:18.777Z,920.00
2022-10-11T12:10:18.792Z,908.00
2022-10-11T12:11:18.751Z,864.00
2022-10-11T12:12:18.739Z,860.00
2022-10-11T12:13:18.711Z,852.00
2022-10-11T12:14:18.719Z,836.00
2022-10-11T12:15:18.699Z,836.00
2022-10-11T12:16:18.720Z,848.00
2022-10-11T12:17:18.671Z,864.00
2022-10-11T12:18:18.660Z,884.00
2022-10-11T12:19:18.640Z,976.00
2022-10-11T12:20:18.687Z,1948.00
2022-10-11T12:21:18.643Z,1936.00
2022-10-11T12:22:18.623Z,1932.00
2022-10-11T12:23:20.067Z,1908.00
2022-10-11T12:24:18.605Z,924.00
2022-10-11T12:25:18.916Z,1912.00
2022-10-11T12:26:18.579Z,1928.00
2022-10-11T12:27:18.555Z,1956.00
2022-10-11T12:28:18.578Z,1936.00
2022-10-11T12:29:18.557Z,804.00
2022-10-11T12:30:18.535Z,788.00
2022-10-11T12:31:18.558Z,796.00
2022-10-11T12:32:18.520Z,920.00
2022-10-11T12:33:18.531Z,1956.00
2022-10-11T12:34:18.495Z,1968.00
2022-10-11T12:35:18.484Z,1940.00
2022-10-11T12:36:18.475Z,1956.00
2022-10-11T12:37:18.444Z,1972.00
2022-10-11T12:38:18.462Z,2004.00
2022-10-11T12:39:18.432Z,2004.00
2022-10-11T12:40:18.424Z,1976.00
2022-10-11T12:41:18.424Z,1940.00
2022-10-11T12:42:18.400Z,1940.00